createdAt,value
2019-05-22T00:01:22.998Z,21.35
2019-05-22T00:03:58.865Z,19.98
2019-05-22T00:06:41.739Z,18.15
2019-05-22T00:09:21.373Z,16.37
2019-05-22T00:11:56.486Z,16.17
2019-05-22T00:14:32.629Z,16.73
2019-05-22T00:17:09.639Z,15.48
2019-05-22T00:19:44.265Z,16.00
2019-05-22T00:22:20.297Z,10.70
2019-05-22T00:24:56.201Z,12.33
2019-05-22T00:27:32.430Z,12.33
2019-05-22T00:30:11.903Z,10.55
2019-05-22T00:32:47.592Z,10.45
2019-05-22T00:35:25.350Z,10.58
2019-05-22T00:38:01.442Z,10.98
2019-05-22T00:40:37.950Z,11.43
2019-05-22T00:43:17.035Z,11.45
2019-05-22T00:45:52.263Z,10.63
2019-05-22T00:48:26.427Z,9.35
2019-05-22T00:51:07.824Z,7.97
2019-05-22T00:53:49.968Z,8.28
2019-05-22T00:56:44.513Z,8.58
2019-05-22T00:59:22.151Z,8.15
2019-05-22T01:02:04.251Z,8.33
2019-05-22T01:04:42.305Z,8.58
2019-05-22T01:07:17.420Z,8.65
2019-05-22T01:09:59.131Z,8.90
2019-05-22T01:12:36.471Z,8.00
2019-05-22T01:15:14.345Z,8.13
2019-05-22T01:17:49.987Z,7.65
2019-05-22T01:20:28.514Z,8.40
2019-05-22T01:23:03.153Z,7.40
2019-05-22T01:25:38.961Z,7.40
2019-05-22T01:28:16.027Z,7.25
2019-05-22T01:30:58.684Z,7.12
2019-05-22T01:33:35.086Z,7.70
2019-05-22T01:36:11.361Z,7.17
2019-05-22T01:38:45.537Z,7.10
2019-05-22T01:41:28.306Z,6.85
2019-05-22T01:44:05.875Z,6.22
2019-05-22T01:46:43.468Z,5.50
2019-05-22T01:49:18.735Z,6.05
2019-05-22T01:51:54.158Z,5.80
2019-05-22T01:54:28.582Z,6.37
2019-05-22T01:57:05.222Z,6.30
2019-05-22T01:59:41.610Z,6.42
2019-05-22T02:02:17.554Z,7.00
2019-05-22T02:04:53.049Z,7.10
2019-05-22T02:07:29.080Z,6.83
2019-05-22T02:10:07.565Z,7.78
2019-05-22T02:12:50.822Z,8.35
2019-05-22T02:15:27.602Z,7.45
2019-05-22T02:18:07.063Z,8.13
2019-05-22T02:20:42.001Z,8.63
2019-05-22T02:23:17.011Z,8.00
2019-05-22T02:25:52.322Z,8.00
2019-05-22T02:28:27.919Z,8.60
2019-05-22T02:31:04.238Z,7.70
2019-05-22T02:33:56.534Z,7.80
2019-05-22T02:36:32.962Z,7.20
2019-05-22T02:39:18.397Z,7.90
2019-05-22T02:41:59.745Z,7.12
2019-05-22T02:44:35.595Z,6.97
2019-05-22T02:47:18.747Z,7.20
2019-05-22T02:49:50.270Z,7.10
2019-05-22T02:52:25.342Z,7.08
2019-05-22T02:54:59.916Z,7.40
2019-05-22T02:57:35.080Z,7.08
2019-05-22T03:00:12.662Z,6.90
2019-05-22T03:02:52.425Z,7.37
2019-05-22T03:05:28.291Z,7.03
2019-05-22T03:08:04.133Z,7.03
2019-05-22T03:10:38.840Z,6.35
2019-05-22T03:13:15.920Z,6.40
2019-05-22T03:15:50.857Z,6.17
2019-05-22T03:18:25.430Z,6.08
2019-05-22T03:20:59.674Z,5.67
2019-05-22T03:23:36.456Z,5.55
2019-05-22T03:26:13.299Z,5.50
2019-05-22T03:28:48.193Z,5.30
2019-05-22T03:31:22.398Z,4.50
2019-05-22T03:33:56.798Z,4.55
2019-05-22T03:36:31.608Z,5.00
2019-05-22T03:39:07.943Z,4.87
2019-05-22T03:41:42.809Z,5.28
2019-05-22T03:44:19.912Z,4.35
2019-05-22T03:46:59.086Z,4.80
2019-05-22T03:49:31.566Z,4.72
2019-05-22T03:52:06.749Z,4.17
2019-05-22T03:54:42.831Z,4.58
2019-05-22T03:57:17.183Z,4.20
2019-05-22T03:59:51.414Z,4.50
2019-05-22T04:02:26.548Z,5.45
2019-05-22T04:05:00.890Z,4.72
2019-05-22T04:07:36.830Z,4.85
2019-05-22T04:10:13.510Z,4.55
2019-05-22T04:12:50.205Z,4.10
2019-05-22T04:15:26.294Z,4.20
2019-05-22T04:18:15.104Z,4.67
2019-05-22T04:20:49.597Z,4.85
2019-05-22T04:23:24.487Z,4.53
2019-05-22T04:26:00.628Z,4.87
2019-05-22T04:28:36.746Z,5.58
2019-05-22T04:31:11.725Z,5.55
2019-05-22T04:33:46.404Z,6.05
2019-05-22T04:36:21.602Z,5.00
2019-05-22T04:38:55.987Z,3.15
2019-05-22T04:41:30.906Z,2.58
2019-05-22T04:44:06.248Z,2.40
2019-05-22T04:46:41.433Z,2.20
2019-05-22T04:49:16.437Z,1.80
2019-05-22T04:51:52.214Z,1.60
2019-05-22T04:54:26.636Z,1.20
2019-05-22T04:57:01.713Z,1.00
2019-05-22T04:59:36.454Z,1.30
2019-05-22T05:02:13.475Z,1.20
2019-05-22T05:04:47.929Z,1.35
2019-05-22T05:07:23.958Z,1.45
2019-05-22T05:09:59.335Z,1.72
2019-05-22T05:12:34.242Z,1.20
2019-05-22T05:15:09.127Z,1.82
2019-05-22T05:17:43.822Z,1.47
2019-05-22T05:20:22.406Z,1.85
2019-05-22T05:22:54.558Z,2.15
2019-05-22T05:25:29.382Z,2.25
2019-05-22T05:28:05.258Z,2.58
2019-05-22T05:30:42.157Z,2.62
2019-05-22T05:33:16.860Z,2.70
2019-05-22T05:35:53.980Z,2.60
2019-05-22T05:38:34.400Z,3.00
2019-05-22T05:41:09.788Z,2.52
2019-05-22T05:43:44.008Z,2.67
2019-05-22T05:46:18.620Z,3.17
2019-05-22T05:48:54.707Z,2.87
2019-05-22T05:51:35.966Z,2.85
2019-05-22T05:54:12.805Z,2.80
2019-05-22T05:56:49.743Z,3.25
2019-05-22T05:59:26.392Z,3.12
2019-05-22T06:02:01.359Z,2.80
2019-05-22T06:04:38.005Z,3.20
2019-05-22T06:07:19.221Z,2.72
2019-05-22T06:09:58.738Z,2.90
2019-05-22T06:12:34.467Z,2.40
2019-05-22T06:15:09.740Z,2.27
2019-05-22T06:18:10.417Z,2.08
2019-05-22T06:21:02.486Z,1.65
2019-05-22T06:23:27.570Z,1.02
2019-05-22T06:26:02.359Z,0.80
2019-05-22T06:28:38.352Z,0.88
2019-05-22T06:31:24.396Z,0.60
2019-05-22T06:33:59.373Z,0.85
2019-05-22T06:36:34.192Z,0.53
2019-05-22T06:39:13.783Z,0.60
2019-05-22T06:41:49.224Z,0.57
2019-05-22T06:44:30.104Z,0.40
2019-05-22T06:47:06.447Z,0.70
2019-05-22T06:49:42.511Z,0.60
2019-05-22T06:52:17.001Z,0.53
2019-05-22T06:54:52.493Z,0.55
2019-05-22T06:57:29.588Z,0.33
2019-05-22T07:00:13.990Z,0.50
2019-05-22T07:02:43.679Z,0.40
2019-05-22T07:05:18.375Z,0.50
2019-05-22T07:07:52.649Z,0.90
2019-05-22T07:10:29.287Z,1.15
2019-05-22T07:13:03.476Z,1.30
2019-05-22T07:15:40.734Z,1.55
2019-05-22T07:18:16.201Z,1.30
2019-05-22T07:20:52.562Z,1.20
2019-05-22T07:23:27.777Z,1.40
2019-05-22T07:26:03.467Z,2.00
2019-05-22T07:28:38.820Z,1.77
2019-05-22T07:31:12.996Z,1.70
2019-05-22T07:33:50.659Z,2.12
2019-05-22T07:36:25.224Z,2.02
2019-05-22T07:39:00.440Z,2.00
2019-05-22T07:41:35.379Z,1.70
2019-05-22T07:44:09.971Z,2.25
2019-05-22T07:46:44.381Z,2.42
2019-05-22T07:49:19.203Z,3.50
2019-05-22T07:52:00.704Z,3.08
2019-05-22T07:54:30.131Z,3.80
2019-05-22T07:57:04.715Z,3.22
2019-05-22T07:59:39.457Z,3.20
2019-05-22T08:02:16.436Z,3.50
2019-05-22T08:04:51.209Z,3.20
2019-05-22T08:07:27.275Z,3.20
2019-05-22T08:10:01.857Z,4.20
2019-05-22T08:12:36.826Z,4.40
2019-05-22T08:15:12.513Z,4.87
2019-05-22T08:17:46.952Z,4.35
2019-05-22T08:20:22.086Z,4.20
2019-05-22T08:22:59.172Z,3.60
2019-05-22T08:25:33.793Z,4.33
2019-05-22T08:28:10.007Z,3.70
2019-05-22T08:30:44.870Z,4.45
2019-05-22T08:33:20.819Z,4.10
2019-05-22T08:35:56.029Z,4.03
2019-05-22T08:38:33.872Z,3.50
2019-05-22T08:41:09.174Z,3.98
2019-05-22T08:44:11.259Z,4.37
2019-05-22T08:46:20.425Z,4.62
2019-05-22T08:48:55.396Z,4.72
2019-05-22T08:51:29.714Z,4.60
2019-05-22T08:54:13.799Z,5.05
2019-05-22T08:56:49.755Z,4.97
2019-05-22T08:59:24.555Z,4.58
2019-05-22T09:01:59.510Z,5.78
2019-05-22T09:04:34.032Z,5.58
2019-05-22T09:07:08.409Z,6.30
2019-05-22T09:09:43.136Z,6.60
2019-05-22T09:12:18.186Z,6.08
2019-05-22T09:14:52.407Z,5.42
2019-05-22T09:17:26.968Z,6.12
2019-05-22T09:20:01.552Z,6.03
2019-05-22T09:22:41.058Z,5.95
2019-05-22T09:25:16.253Z,5.85
2019-05-22T09:27:52.379Z,5.90
2019-05-22T09:30:27.242Z,6.28
2019-05-22T09:33:03.380Z,5.92
2019-05-22T09:35:38.200Z,6.25
2019-05-22T09:38:12.385Z,6.08
2019-05-22T09:40:46.939Z,5.78
2019-05-22T09:43:21.451Z,6.40
2019-05-22T09:45:57.229Z,7.05
2019-05-22T09:48:33.056Z,7.35
2019-05-22T09:51:07.472Z,7.10
2019-05-22T09:53:43.336Z,7.03
2019-05-22T09:56:18.172Z,7.90
2019-05-22T09:58:53.784Z,7.87
2019-05-22T10:01:28.319Z,8.13
2019-05-22T10:04:03.512Z,8.53
2019-05-22T10:06:38.111Z,8.83
2019-05-22T10:09:12.407Z,9.88
2019-05-22T10:11:47.091Z,9.80
2019-05-22T10:14:21.922Z,9.78
2019-05-22T10:16:57.688Z,10.90
2019-05-22T10:19:32.030Z,10.85
2019-05-22T10:22:07.882Z,10.50
2019-05-22T10:24:44.535Z,10.88
2019-05-22T10:27:18.962Z,10.88
2019-05-22T10:29:55.723Z,12.18
2019-05-22T10:32:32.560Z,11.63
2019-05-22T10:35:08.591Z,12.37
2019-05-22T10:37:43.063Z,12.05
2019-05-22T10:40:18.050Z,12.47
2019-05-22T10:42:52.918Z,12.53
2019-05-22T10:45:27.640Z,12.78
2019-05-22T10:48:03.171Z,12.58
2019-05-22T10:50:37.499Z,12.82
2019-05-22T10:53:12.727Z,12.75
2019-05-22T10:55:47.546Z,12.20
2019-05-22T10:58:22.001Z,12.53
2019-05-22T11:00:56.435Z,13.83
2019-05-22T11:03:31.572Z,13.80
2019-05-22T11:06:07.757Z,12.37
2019-05-22T11:08:42.617Z,13.80
2019-05-22T11:11:17.623Z,13.60
2019-05-22T11:14:01.495Z,12.85
2019-05-22T11:16:30.038Z,13.58
2019-05-22T11:19:04.493Z,12.30
2019-05-22T11:21:41.703Z,13.48
2019-05-22T11:24:16.001Z,13.08
2019-05-22T11:26:50.675Z,12.95
2019-05-22T11:29:25.157Z,12.95
2019-05-22T11:31:59.700Z,13.98
2019-05-22T11:34:34.458Z,14.07
2019-05-22T11:37:09.198Z,14.15
2019-05-22T11:39:45.044Z,14.35
2019-05-22T11:42:19.855Z,13.83
2019-05-22T11:44:55.124Z,13.40
2019-05-22T11:47:29.453Z,14.68
2019-05-22T11:50:06.703Z,14.45
2019-05-22T11:52:42.073Z,14.30
2019-05-22T11:55:16.734Z,12.60
2019-05-22T11:57:51.776Z,14.00
2019-05-22T12:00:26.483Z,12.20
2019-05-22T12:03:01.472Z,12.65
2019-05-22T12:05:35.833Z,12.33
2019-05-22T12:08:13.460Z,12.53
2019-05-22T12:10:47.972Z,12.50
2019-05-22T12:13:22.612Z,11.28
2019-05-22T12:15:57.440Z,10.98
2019-05-22T12:18:32.758Z,11.28
2019-05-22T12:21:07.435Z,10.90
2019-05-22T12:23:44.444Z,9.65
2019-05-22T12:26:19.438Z,10.40
2019-05-22T12:28:53.728Z,9.83
2019-05-22T12:31:28.569Z,9.40
2019-05-22T12:34:03.192Z,10.85
2019-05-22T12:36:37.865Z,9.80
2019-05-22T12:39:13.430Z,9.85
2019-05-22T12:41:48.663Z,10.25
2019-05-22T12:44:23.684Z,9.50
2019-05-22T12:46:58.219Z,8.93
2019-05-22T12:49:32.757Z,9.23
2019-05-22T12:52:09.086Z,9.68
2019-05-22T12:54:48.423Z,9.15
2019-05-22T12:57:19.886Z,8.55
2019-05-22T12:59:54.636Z,8.70
2019-05-22T13:02:28.954Z,8.65
2019-05-22T13:05:04.175Z,8.50
2019-05-22T13:07:39.656Z,8.58
2019-05-22T13:10:15.088Z,8.45
2019-05-22T13:12:49.783Z,7.50
2019-05-22T13:15:25.214Z,7.30
2019-05-22T13:17:59.926Z,6.85
2019-05-22T13:20:43.343Z,7.58
2019-05-22T13:23:13.778Z,7.45
2019-05-22T13:25:48.833Z,6.62
2019-05-22T13:28:24.816Z,6.50
2019-05-22T13:31:00.711Z,7.42
2019-05-22T13:33:35.663Z,7.05
2019-05-22T13:36:11.479Z,7.20
2019-05-22T13:38:49.879Z,6.40
2019-05-22T13:41:24.234Z,5.60
2019-05-22T13:43:59.030Z,6.20
2019-05-22T13:46:35.993Z,6.37
2019-05-22T13:49:10.424Z,6.08
2019-05-22T13:51:44.777Z,6.40
2019-05-22T13:54:20.245Z,5.55
2019-05-22T13:56:54.527Z,5.22
2019-05-22T13:59:29.462Z,6.00
2019-05-22T14:02:04.207Z,5.10
2019-05-22T14:04:38.709Z,5.15
2019-05-22T14:07:13.105Z,4.42
2019-05-22T14:09:47.389Z,4.72
2019-05-22T14:12:21.950Z,4.90
2019-05-22T14:14:56.300Z,4.22
2019-05-22T14:17:30.507Z,4.08
2019-05-22T14:20:07.402Z,4.60
2019-05-22T14:22:41.921Z,4.55
2019-05-22T14:25:17.697Z,4.42
2019-05-22T14:27:52.290Z,4.22
2019-05-22T14:30:27.942Z,4.35
2019-05-22T14:33:04.797Z,4.33
2019-05-22T14:35:48.288Z,4.30
2019-05-22T14:38:16.426Z,3.47
2019-05-22T14:40:53.038Z,3.75
2019-05-22T14:43:28.717Z,3.42
2019-05-22T14:46:03.631Z,3.45
2019-05-22T14:48:39.520Z,3.37
2019-05-22T14:51:14.875Z,3.10
2019-05-22T14:53:50.119Z,3.37
2019-05-22T14:56:25.273Z,3.15
2019-05-22T14:59:00.024Z,2.98
2019-05-22T15:01:34.957Z,3.20
2019-05-22T15:04:09.679Z,3.42
2019-05-22T15:06:44.017Z,2.90
2019-05-22T15:09:18.465Z,2.98
2019-05-22T15:11:52.764Z,3.30
2019-05-22T15:14:27.289Z,3.33
2019-05-22T15:17:01.526Z,3.70
2019-05-22T15:19:36.415Z,3.40
2019-05-22T15:22:10.913Z,3.58
2019-05-22T15:24:45.905Z,3.33
2019-05-22T15:27:20.423Z,3.65
2019-05-22T15:29:56.008Z,3.52
2019-05-22T15:32:30.534Z,2.87
2019-05-22T15:35:06.833Z,3.30
2019-05-22T15:37:42.015Z,3.40
2019-05-22T15:40:16.725Z,3.27
2019-05-22T15:42:51.270Z,3.40
2019-05-22T15:45:27.438Z,3.77
2019-05-22T15:48:03.666Z,3.87
2019-05-22T15:50:38.930Z,3.80
2019-05-22T15:53:15.154Z,3.30
2019-05-22T15:55:50.766Z,4.05
2019-05-22T15:58:27.531Z,3.62
2019-05-22T16:01:04.688Z,3.92
2019-05-22T16:03:40.474Z,3.65
2019-05-22T16:06:15.412Z,3.80
2019-05-22T16:08:50.992Z,3.90
2019-05-22T16:11:27.644Z,4.03
2019-05-22T16:14:03.411Z,3.85
2019-05-22T16:16:37.908Z,4.05
2019-05-22T16:19:13.153Z,3.37
2019-05-22T16:21:48.557Z,3.47
2019-05-22T16:24:24.003Z,3.87
2019-05-22T16:26:58.520Z,3.65
2019-05-22T16:29:33.990Z,4.12
2019-05-22T16:32:10.227Z,3.40
2019-05-22T16:34:44.792Z,3.98
2019-05-22T16:37:19.196Z,3.83
2019-05-22T16:39:54.511Z,3.87
2019-05-22T16:42:30.473Z,4.33
2019-05-22T16:45:08.310Z,3.70
2019-05-22T16:47:43.283Z,3.85
2019-05-22T16:50:18.630Z,3.52
2019-05-22T16:52:54.180Z,3.77
2019-05-22T16:55:32.054Z,3.90
2019-05-22T16:58:06.828Z,2.98
2019-05-22T17:00:42.866Z,3.47
2019-05-22T17:03:18.274Z,4.17
2019-05-22T17:05:52.609Z,3.72
2019-05-22T17:08:28.892Z,3.20
2019-05-22T17:11:04.399Z,3.60
2019-05-22T17:13:39.492Z,3.37
2019-05-22T17:16:15.606Z,3.02
2019-05-22T17:18:49.948Z,3.37
2019-05-22T17:21:24.221Z,3.52
2019-05-22T17:23:59.385Z,3.30
2019-05-22T17:26:35.017Z,3.17
2019-05-22T17:29:12.030Z,3.20
2019-05-22T17:31:46.729Z,3.15
2019-05-22T17:34:35.422Z,3.15
2019-05-22T17:37:13.418Z,3.17
2019-05-22T17:39:49.347Z,3.60
2019-05-22T17:42:27.401Z,2.77
2019-05-22T17:45:03.051Z,3.47
2019-05-22T17:47:37.542Z,3.20
2019-05-22T17:50:26.146Z,2.83
2019-05-22T17:52:50.738Z,3.08
2019-05-22T17:55:26.819Z,3.08
2019-05-22T17:58:01.249Z,3.08
2019-05-22T18:00:37.575Z,3.25
2019-05-22T18:03:12.274Z,2.92
2019-05-22T18:05:47.339Z,2.75
2019-05-22T18:08:23.305Z,3.20
2019-05-22T18:10:58.988Z,2.80
2019-05-22T18:13:37.382Z,2.50
2019-05-22T18:16:11.749Z,2.87
2019-05-22T18:18:46.420Z,2.80
2019-05-22T18:21:20.992Z,2.90
2019-05-22T18:23:55.758Z,3.30
2019-05-22T18:26:30.533Z,3.25
2019-05-22T18:29:05.353Z,2.92
2019-05-22T18:31:40.515Z,3.08
2019-05-22T18:34:14.804Z,2.75
2019-05-22T18:36:49.101Z,2.77
2019-05-22T18:39:25.621Z,2.87
2019-05-22T18:41:59.948Z,2.58
2019-05-22T18:44:34.179Z,2.83
2019-05-22T18:47:10.127Z,3.20
2019-05-22T18:49:44.472Z,2.90
2019-05-22T18:52:19.590Z,3.00
2019-05-22T18:55:01.369Z,2.90
2019-05-22T18:57:51.384Z,2.95
2019-05-22T19:00:34.183Z,2.45
2019-05-22T19:03:08.767Z,2.77
2019-05-22T19:05:46.388Z,2.92
2019-05-22T19:08:20.738Z,2.50
2019-05-22T19:11:02.895Z,2.85
2019-05-22T19:13:37.230Z,2.50
2019-05-22T19:16:11.983Z,2.52
2019-05-22T19:18:54.035Z,2.22
2019-05-22T19:21:28.300Z,2.02
2019-05-22T19:24:02.678Z,2.10
2019-05-22T19:27:05.423Z,2.17
2019-05-22T19:29:39.793Z,2.55
2019-05-22T19:32:14.295Z,2.00
2019-05-22T19:34:51.951Z,1.77
2019-05-22T19:37:26.119Z,1.80
2019-05-22T19:40:06.402Z,2.05
2019-05-22T19:42:40.945Z,1.92
2019-05-22T19:45:19.309Z,1.75
2019-05-22T19:47:56.917Z,2.22
2019-05-22T19:50:35.716Z,1.77
2019-05-22T19:53:18.836Z,2.22
2019-05-22T19:55:46.948Z,2.05
2019-05-22T19:58:22.283Z,2.22
2019-05-22T20:01:06.611Z,1.90
2019-05-22T20:03:40.919Z,2.33
2019-05-22T20:06:38.185Z,2.35
2019-05-22T20:09:13.524Z,1.82
2019-05-22T20:11:48.236Z,2.45
2019-05-22T20:14:23.231Z,2.70
2019-05-22T20:17:01.413Z,2.10
2019-05-22T20:19:36.897Z,2.33
2019-05-22T20:22:13.001Z,2.47
2019-05-22T20:24:59.463Z,2.33
2019-05-22T20:27:34.109Z,2.35
2019-05-22T20:30:36.581Z,2.17
2019-05-22T20:33:11.486Z,2.35
2019-05-22T20:36:00.293Z,2.50
2019-05-22T20:38:34.882Z,2.25
2019-05-22T20:41:10.263Z,2.12
2019-05-22T20:43:45.889Z,2.27
2019-05-22T20:46:22.056Z,2.27
2019-05-22T20:49:00.779Z,2.33
2019-05-22T20:51:35.416Z,2.58
2019-05-22T20:54:13.327Z,2.45
2019-05-22T20:56:48.162Z,2.95
2019-05-22T20:59:25.176Z,2.22
2019-05-22T21:01:59.695Z,2.85
2019-05-22T21:04:38.519Z,2.53
2019-05-22T21:07:14.521Z,2.50
2019-05-22T21:09:51.165Z,2.70
2019-05-22T21:12:25.704Z,2.23
2019-05-22T21:15:00.072Z,2.33
2019-05-22T21:17:33.892Z,2.35
2019-05-22T21:20:09.676Z,2.10
2019-05-22T21:22:52.099Z,2.43
2019-05-22T21:25:26.919Z,2.45
2019-05-22T21:28:01.429Z,2.20
2019-05-22T21:30:40.583Z,2.53
2019-05-22T21:33:14.914Z,2.13
2019-05-22T21:35:48.515Z,2.37
2019-05-22T21:38:26.351Z,2.10
2019-05-22T21:41:00.125Z,1.85
2019-05-22T21:43:34.254Z,2.20
2019-05-22T21:46:08.714Z,1.93
2019-05-22T21:48:42.824Z,1.80
2019-05-22T21:51:17.682Z,2.33
2019-05-22T21:53:52.094Z,2.08
2019-05-22T21:56:25.903Z,1.90
2019-05-22T21:59:11.831Z,2.33
2019-05-22T22:01:48.095Z,1.92
2019-05-22T22:04:24.914Z,2.03
2019-05-22T22:07:05.908Z,1.80
2019-05-22T22:09:40.226Z,2.50
2019-05-22T22:12:17.288Z,2.27
2019-05-22T22:14:57.540Z,2.10
2019-05-22T22:17:32.455Z,2.87
2019-05-22T22:20:07.648Z,2.50
2019-05-22T22:22:49.150Z,2.30
2019-05-22T22:25:23.966Z,2.40
2019-05-22T22:27:58.531Z,2.07
2019-05-22T22:30:33.955Z,2.33
2019-05-22T22:33:09.429Z,2.50
2019-05-22T22:35:52.906Z,2.40
2019-05-22T22:38:27.924Z,2.30
2019-05-22T22:41:02.607Z,2.43
2019-05-22T22:43:39.629Z,1.80
2019-05-22T22:49:03.254Z,2.77
2019-05-22T22:51:50.391Z,3.40
2019-05-22T22:54:24.780Z,2.77
2019-05-22T22:57:00.115Z,2.90
2019-05-22T22:59:35.383Z,2.60
2019-05-22T23:02:15.606Z,2.60
2019-05-22T23:04:49.371Z,3.00
2019-05-22T23:07:33.867Z,3.23
2019-05-22T23:10:11.434Z,3.20
2019-05-22T23:12:45.143Z,3.03
2019-05-22T23:15:31.956Z,3.60
2019-05-22T23:18:06.387Z,3.50
2019-05-22T23:20:40.535Z,3.50
2019-05-22T23:23:13.957Z,3.50
2019-05-22T23:25:47.898Z,3.20
2019-05-22T23:28:34.159Z,3.30
2019-05-22T23:31:09.959Z,4.00
2019-05-22T23:33:44.118Z,4.17
2019-05-22T23:36:21.553Z,4.23
2019-05-22T23:38:58.038Z,4.50
2019-05-22T23:41:32.886Z,3.93
2019-05-22T23:44:09.227Z,4.17
2019-05-22T23:46:43.012Z,4.07
2019-05-22T23:49:16.957Z,3.90
2019-05-22T23:51:53.791Z,3.70
2019-05-22T23:54:28.682Z,3.93
2019-05-22T23:57:03.228Z,3.80
2019-05-22T23:59:39.605Z,3.43
